Time;durP1;ratioP1;P1;durP2;ratioP2;P2;SDS_P1;SDS_P2;PMS_P1;PMS_P2;Temp;Humidity;BMP_temperature;BMP_pressure;BME280_temperature;BME280_humidity;BME280_pressure;Samples;Min_cycle;Max_cycle;Signal;HPM_P1;HPM_P2
2023/04/17 00:01:21;;;;;;;12.00;2.50;;;;;;;5.82;100.00;101806.66;106806;1282;72125;-75
2023/04/17 00:03:46;;;;;;;5.80;2.80;;;;;;;5.80;100.00;101805.78;107222;1281;59088;-74
2023/04/17 00:06:12;;;;;;;7.80;3.00;;;;;;;5.77;100.00;101808.26;106669;1283;59116;-74
2023/04/17 00:08:39;;;;;;;7.60;3.10;;;;;;;5.76;100.00;101809.88;107230;1282;59061;-74
2023/04/17 00:11:05;;;;;;;8.50;2.90;;;;;;;5.72;100.00;101811.25;107183;1283;59307;-75
2023/04/17 00:13:30;;;;;;;6.50;2.90;;;;;;;5.71;100.00;101810.48;107159;1283;59121;-75
2023/04/17 00:15:56;;;;;;;8.70;2.80;;;;;;;5.70;100.00;101810.91;107211;1282;59009;-74
2023/04/17 00:18:22;;;;;;;7.00;2.60;;;;;;;5.69;100.00;101809.39;107227;1283;59089;-74
2023/04/17 00:20:47;;;;;;;5.20;2.80;;;;;;;5.68;100.00;101807.94;106890;1283;59214;-74
2023/04/17 00:23:13;;;;;;;10.30;2.90;;;;;;;5.68;100.00;101810.45;107211;1283;59287;-74
2023/04/17 00:25:38;;;;;;;8.30;2.90;;;;;;;5.68;100.00;101807.58;106770;1283;59203;-74
2023/04/17 00:28:04;;;;;;;7.20;2.90;;;;;;;5.70;100.00;101810.91;107260;1283;59096;-74
2023/04/17 00:30:29;;;;;;;8.10;2.60;;;;;;;5.70;100.00;101808.53;107197;1282;74509;-75
2023/04/17 00:32:55;;;;;;;6.40;2.50;;;;;;;5.71;100.00;101812.91;107173;1283;59086;-74
2023/04/17 00:35:20;;;;;;;7.10;2.60;;;;;;;5.71;100.00;101814.21;106701;1282;59193;-74
2023/04/17 00:37:47;;;;;;;5.30;2.40;;;;;;;5.68;100.00;101812.80;107195;1282;59142;-74
2023/04/17 00:40:13;;;;;;;12.10;2.90;;;;;;;5.65;100.00;101816.16;107221;1282;59369;-74
2023/04/17 00:42:38;;;;;;;9.60;2.70;;;;;;;5.63;100.00;101812.32;107267;1282;59078;-74
2023/04/17 00:45:04;;;;;;;5.10;2.30;;;;;;;5.61;100.00;101810.63;107164;1283;73401;-75
2023/04/17 00:47:31;;;;;;;4.80;2.60;;;;;;;5.61;100.00;101814.28;107177;1284;58948;-74
2023/04/17 00:49:57;;;;;;;6.20;2.50;;;;;;;5.60;100.00;101812.59;107195;1282;59130;-74
2023/04/17 00:52:28;;;;;;;5.70;2.90;;;;;;;5.57;100.00;101814.51;107195;1282;59054;-74
2023/04/17 00:54:54;;;;;;;7.60;2.50;;;;;;;5.56;100.00;101812.80;107265;1282;72464;-74
2023/04/17 00:57:20;;;;;;;8.80;3.10;;;;;;;5.53;100.00;101816.33;106681;1283;59178;-74
2023/04/17 00:59:46;;;;;;;7.90;2.90;;;;;;;5.50;100.00;101811.54;107154;1281;58996;-75
2023/04/17 01:02:12;;;;;;;8.00;2.70;;;;;;;5.47;100.00;101814.89;107217;1283;58975;-74
2023/04/17 01:04:37;;;;;;;7.50;2.80;;;;;;;5.44;100.00;101816.40;107251;1283;59041;-74
2023/04/17 01:07:03;;;;;;;5.50;2.50;;;;;;;5.41;100.00;101819.02;106785;1282;59154;-75
2023/04/17 01:09:29;;;;;;;8.40;2.80;;;;;;;5.38;100.00;101817.29;107206;1283;59041;-74
2023/04/17 01:12:17;;;;;;;8.30;2.80;;;;;;;5.37;100.00;101818.39;106581;1282;60894;-75
2023/04/17 01:14:43;;;;;;;13.10;2.50;;;;;;;5.34;100.00;101819.98;107191;1282;75384;-75
2023/04/17 01:17:09;;;;;;;10.90;2.70;;;;;;;5.32;100.00;101820.26;106719;1283;59197;-74
2023/04/17 01:19:35;;;;;;;5.00;2.50;;;;;;;5.30;100.00;101819.48;107181;1283;59849;-74
2023/04/17 01:22:00;;;;;;;8.80;2.60;;;;;;;5.28;100.00;101821.71;107175;1282;58983;-74
2023/04/17 01:24:26;;;;;;;7.10;2.90;;;;;;;5.25;100.00;101819.92;107199;1283;59092;-75
2023/04/17 01:26:51;;;;;;;9.40;3.40;;;;;;;5.20;100.00;101818.69;107229;1283;59056;-74
2023/04/17 01:29:17;;;;;;;11.80;4.00;;;;;;;5.17;100.00;101815.54;106732;1286;71080;-75
2023/04/17 01:31:42;;;;;;;10.70;4.90;;;;;;;5.11;100.00;101816.62;107214;1283;58992;-74
2023/04/17 01:34:08;;;;;;;19.70;5.60;;;;;;;5.05;100.00;101813.21;107184;1283;59109;-74
2023/04/17 01:36:33;;;;;;;9.70;5.10;;;;;;;4.97;100.00;101810.73;107189;1282;59064;-74
2023/04/17 01:38:59;;;;;;;11.30;5.10;;;;;;;4.92;100.00;101809.74;107202;1282;59072;-74
2023/04/17 01:41:24;;;;;;;11.10;4.70;;;;;;;4.88;100.00;101808.48;106688;1283;59567;-74
2023/04/17 01:43:50;;;;;;;9.40;5.20;;;;;;;4.86;100.00;101811.63;107207;1282;59116;-74
2023/04/17 01:46:15;;;;;;;13.20;5.20;;;;;;;4.82;100.00;101811.34;107213;1282;59138;-75
2023/04/17 01:48:41;;;;;;;14.50;5.10;;;;;;;4.78;100.00;101808.27;107215;1282;59078;-74
2023/04/17 01:51:06;;;;;;;12.80;4.70;;;;;;;4.74;100.00;101808.80;107207;1282;59109;-75
2023/04/17 01:53:32;;;;;;;9.00;4.40;;;;;;;4.71;100.00;101808.08;107191;1282;59015;-74
2023/04/17 01:56:00;;;;;;;9.90;3.40;;;;;;;4.69;100.00;101804.64;107172;1283;59078;-74
2023/04/17 01:58:26;;;;;;;9.00;3.00;;;;;;;4.67;100.00;101805.80;106780;1283;74727;-74
2023/04/17 02:00:51;;;;;;;4.10;2.50;;;;;;;4.64;100.00;101803.66;107184;1282;59015;-74
2023/04/17 02:03:17;;;;;;;8.60;2.60;;;;;;;4.63;100.00;101807.25;107207;1282;59012;-74
2023/04/17 02:05:46;;;;;;;7.80;2.50;;;;;;;4.61;100.00;101803.38;106758;1283;59197;-75
2023/04/17 02:08:15;;;;;;;6.70;2.60;;;;;;;4.59;100.00;101801.70;107172;1282;75288;-74
2023/04/17 02:10:41;;;;;;;4.10;2.50;;;;;;;4.56;100.00;101801.61;107203;1282;73351;-74
2023/04/17 02:13:08;;;;;;;16.30;2.50;;;;;;;4.54;100.00;101800.19;107169;1282;59148;-74
2023/04/17 02:15:34;;;;;;;4.60;2.10;;;;;;;4.53;100.00;101803.75;106765;1286;59186;-75
2023/04/17 02:18:00;;;;;;;7.80;2.80;;;;;;;4.51;100.00;101806.60;107194;1283;59047;-74
2023/04/17 02:20:26;;;;;;;6.60;2.50;;;;;;;4.50;100.00;101806.76;107187;1283;59300;-74
2023/04/17 02:22:51;;;;;;;6.80;2.70;;;;;;;4.48;100.00;101803.70;107220;1283;59007;-74
2023/04/17 02:25:17;;;;;;;8.00;2.50;;;;;;;4.45;100.00;101802.77;107175;1282;59095;-75
2023/04/17 02:27:42;;;;;;;9.50;3.20;;;;;;;4.42;100.00;101802.81;107249;1282;59156;-74
2023/04/17 02:30:08;;;;;;;9.80;3.60;;;;;;;4.41;100.00;101803.16;107200;1282;74657;-74
2023/04/17 02:32:34;;;;;;;10.40;3.80;;;;;;;4.42;100.00;101804.58;107198;1283;59001;-74
2023/04/17 02:35:00;;;;;;;8.40;3.80;;;;;;;4.45;100.00;101801.21;106704;1283;60032;-74
2023/04/17 02:37:25;;;;;;;8.50;3.20;;;;;;;4.48;100.00;101801.19;106716;1282;59021;-74
2023/04/17 02:39:52;;;;;;;7.90;3.20;;;;;;;4.51;100.00;101801.42;107190;1283;59481;-74
2023/04/17 02:42:17;;;;;;;7.60;3.30;;;;;;;4.53;100.00;101804.79;106917;1283;394067;-75
2023/04/17 02:44:45;;;;;;;7.20;3.10;;;;;;;4.56;100.00;101806.56;107251;1283;59110;-75
2023/04/17 02:47:11;;;;;;;6.40;3.30;;;;;;;4.58;100.00;101807.61;107180;1283;61972;-74
2023/04/17 02:49:36;;;;;;;8.50;3.10;;;;;;;4.59;100.00;101812.45;107199;1282;59142;-74
2023/04/17 02:52:02;;;;;;;7.60;3.20;;;;;;;4.59;100.00;101811.20;107262;1282;59066;-74
2023/04/17 02:54:27;;;;;;;10.10;3.70;;;;;;;4.61;100.00;101812.08;106777;1283;59127;-74
2023/04/17 02:56:57;;;;;;;8.50;3.80;;;;;;;4.64;100.00;101811.34;107236;1282;59011;-75
2023/04/17 02:59:23;;;;;;;9.10;3.70;;;;;;;4.68;100.00;101810.80;107161;1283;60909;-75
2023/04/17 03:01:49;;;;;;;9.50;3.90;;;;;;;4.73;100.00;101808.38;107184;1282;59137;-74
2023/04/17 03:04:15;;;;;;;6.20;3.10;;;;;;;4.76;100.00;101812.27;107206;1283;59001;-74
2023/04/17 03:06:40;;;;;;;8.00;3.00;;;;;;;4.83;100.00;101808.27;107157;1282;59072;-75
2023/04/17 03:09:06;;;;;;;8.70;3.00;;;;;;;4.92;100.00;101814.27;107188;1282;59014;-74
2023/04/17 03:11:32;;;;;;;11.50;3.90;;;;;;;5.01;100.00;101809.91;107169;1283;60459;-74
2023/04/17 03:13:57;;;;;;;12.40;3.40;;;;;;;5.19;100.00;101812.10;107222;1282;59118;-74
2023/04/17 03:16:23;;;;;;;6.40;3.40;;;;;;;5.50;100.00;101810.66;107169;1283;59099;-74
2023/04/17 03:18:48;;;;;;;9.30;4.00;;;;;;;5.85;100.00;101810.91;107179;1282;59002;-74
2023/04/17 03:21:14;;;;;;;9.00;3.30;;;;;;;6.23;100.00;101819.02;107230;1282;59079;-75
2023/04/17 03:23:40;;;;;;;10.50;3.80;;;;;;;6.22;98.96;101814.23;106711;1283;59104;-75
2023/04/17 03:26:06;;;;;;;7.90;3.80;;;;;;;6.03;99.34;101813.29;107193;1282;59236;-75
2023/04/17 03:28:31;;;;;;;7.80;3.30;;;;;;;5.95;99.26;101811.98;106895;1286;59670;-75
2023/04/17 03:30:58;;;;;;;7.00;3.60;;;;;;;5.92;99.15;101813.64;107221;1281;59110;-75
2023/04/17 03:33:24;;;;;;;10.40;3.60;;;;;;;5.91;97.08;101814.78;107178;1282;74721;-76
2023/04/17 03:35:50;;;;;;;13.00;3.70;;;;;;;5.95;96.86;101809.58;107210;1282;59023;-75
2023/04/17 03:38:16;;;;;;;9.20;3.50;;;;;;;5.99;96.92;101810.61;107198;1282;59019;-76
2023/04/17 03:40:42;;;;;;;10.60;4.30;;;;;;;6.04;94.53;101807.65;107203;1282;58911;-76
2023/04/17 03:43:08;;;;;;;12.30;4.20;;;;;;;6.08;94.23;101806.23;107164;1282;59023;-75
2023/04/17 03:45:34;;;;;;;13.00;4.60;;;;;;;6.16;94.26;101808.28;107184;1282;58987;-76
2023/04/17 03:48:00;;;;;;;8.10;3.80;;;;;;;6.27;91.19;101816.42;106723;1283;59445;-76
2023/04/17 03:50:25;;;;;;;12.60;4.70;;;;;;;6.52;89.84;101814.35;107227;1282;59083;-76
2023/04/17 03:52:51;;;;;;;11.60;3.90;;;;;;;6.98;85.45;101815.66;107200;1282;60403;-75
2023/04/17 03:55:16;;;;;;;12.30;4.20;;;;;;;7.56;81.84;101812.96;107210;1281;59033;-76
2023/04/17 03:57:42;;;;;;;8.90;3.70;;;;;;;8.14;77.85;101811.21;106853;1283;59285;-76
2023/04/17 04:00:09;;;;;;;9.80;3.90;;;;;;;8.57;74.87;101814.20;107178;1282;59048;-76
2023/04/17 04:02:35;;;;;;;9.50;4.00;;;;;;;8.99;72.08;101813.58;107030;1281;59050;-76
2023/04/17 04:05:01;;;;;;;12.00;4.10;;;;;;;9.38;69.11;101812.89;107260;1282;59132;-76
2023/04/17 04:07:27;;;;;;;14.10;4.10;;;;;;;9.72;65.66;101812.89;106810;1282;59217;-76
2023/04/17 04:09:52;;;;;;;9.70;3.70;;;;;;;10.00;64.45;101813.82;106859;1284;59142;-76
2023/04/17 04:12:17;;;;;;;9.20;3.70;;;;;;;10.43;62.99;101815.52;107071;1283;59035;-77
2023/04/17 04:14:43;;;;;;;11.20;3.90;;;;;;;10.72;60.96;101813.62;107225;1282;59088;-77
2023/04/17 04:17:08;;;;;;;9.00;3.60;;;;;;;10.86;58.66;101816.35;107248;1282;59336;-77
2023/04/17 04:19:34;;;;;;;10.80;4.20;;;;;;;11.23;59.08;101813.38;107204;1282;59044;-77
2023/04/17 04:22:00;;;;;;;9.60;4.10;;;;;;;11.69;57.41;101807.17;107204;1282;59082;-77
2023/04/17 04:24:25;;;;;;;7.80;4.00;;;;;;;11.66;54.96;101809.14;107215;1282;61300;-77
2023/04/17 04:26:51;;;;;;;7.70;4.00;;;;;;;11.69;54.29;101810.73;107277;1282;59472;-76
2023/04/17 04:29:16;;;;;;;11.00;3.70;;;;;;;11.66;53.47;101797.77;107236;1283;59150;-78
2023/04/17 04:31:45;;;;;;;11.80;4.20;;;;;;;11.92;53.59;101794.29;107198;1283;59115;-77
2023/04/17 04:34:12;;;;;;;13.30;3.60;;;;;;;12.19;52.52;101789.47;107188;1282;59122;-77
2023/04/17 04:36:40;;;;;;;7.70;3.60;;;;;;;12.40;50.70;101798.30;107225;1282;59054;-77
2023/04/17 04:39:06;;;;;;;9.00;3.70;;;;;;;12.53;50.22;101795.51;107210;1282;74415;-77
2023/04/17 04:41:32;;;;;;;16.00;4.60;;;;;;;12.80;50.02;101794.84;107218;1282;59031;-78
2023/04/17 04:44:00;;;;;;;16.50;3.40;;;;;;;13.36;49.82;101791.67;107239;1282;59052;-78
2023/04/17 04:46:26;;;;;;;9.10;3.40;;;;;;;13.70;48.36;101793.71;107238;1282;59435;-78
2023/04/17 04:48:51;;;;;;;9.80;3.60;;;;;;;13.93;47.23;101788.48;107243;1282;58899;-78
2023/04/17 04:51:20;;;;;;;8.20;3.30;;;;;;;14.15;45.82;101790.45;107247;1282;59359;-77
2023/04/17 04:53:46;;;;;;;7.20;3.10;;;;;;;14.27;45.15;101794.13;107204;1281;74713;-78
2023/04/17 04:56:11;;;;;;;13.50;3.70;;;;;;;14.65;44.89;101795.55;106721;1283;59050;-78
2023/04/17 04:58:40;;;;;;;6.40;3.30;;;;;;;14.66;43.59;101794.20;107198;1282;58983;-77
2023/04/17 05:01:06;;;;;;;9.30;3.30;;;;;;;14.64;43.00;101800.64;107177;1283;60157;-77
2023/04/17 05:03:32;;;;;;;7.40;3.40;;;;;;;14.65;42.91;101796.48;107206;1282;58966;-77
2023/04/17 05:05:57;;;;;;;11.00;4.00;;;;;;;14.85;42.27;101789.59;107184;1282;59082;-78
2023/04/17 05:08:23;;;;;;;11.00;4.00;;;;;;;15.24;42.30;101799.16;107184;1282;59041;-79
2023/04/17 05:10:48;;;;;;;10.20;4.00;;;;;;;15.66;41.48;101793.89;107170;1282;59037;-78
2023/04/17 05:13:14;;;;;;;7.20;2.80;;;;;;;15.64;40.17;101793.44;107250;1282;59088;-78
2023/04/17 05:15:42;;;;;;;11.50;3.30;;;;;;;15.60;40.22;101794.08;107214;1282;74655;-77
2023/04/17 05:18:08;;;;;;;8.60;2.90;;;;;;;15.94;39.93;101793.70;107154;1282;73341;-76
2023/04/17 05:20:35;;;;;;;7.60;3.20;;;;;;;16.25;40.03;101785.80;107225;1282;59057;-77
2023/04/17 05:23:00;;;;;;;8.60;3.10;;;;;;;16.52;38.90;101785.25;106760;1282;59116;-78
2023/04/17 05:25:26;;;;;;;7.20;3.10;;;;;;;16.61;37.67;101790.65;107059;1283;59166;-78
2023/04/17 05:27:51;;;;;;;7.10;3.40;;;;;;;16.80;38.80;101788.60;107275;1282;59160;-77
2023/04/17 05:30:17;;;;;;;7.20;2.70;;;;;;;16.98;37.19;101791.56;106913;1282;59085;-77
2023/04/17 05:32:43;;;;;;;9.00;3.10;;;;;;;16.59;37.89;101792.77;106851;1282;59128;-77
2023/04/17 05:35:09;;;;;;;8.30;3.20;;;;;;;16.40;38.23;101796.11;107197;1282;75778;-77
2023/04/17 05:37:35;;;;;;;7.80;3.30;;;;;;;16.40;37.98;101796.12;106715;1287;59157;-77
2023/04/17 05:40:05;;;;;;;8.30;2.90;;;;;;;16.69;38.11;101797.15;106721;1282;59039;-77
2023/04/17 05:42:32;;;;;;;5.70;2.60;;;;;;;16.92;36.99;101795.54;106786;1282;61699;-77
2023/04/17 05:44:57;;;;;;;6.90;2.80;;;;;;;16.81;36.63;101796.30;106690;1282;60134;-77
2023/04/17 05:47:23;;;;;;;8.20;2.80;;;;;;;16.55;35.99;101798.70;106835;1282;59133;-78
2023/04/17 05:49:51;;;;;;;5.00;2.50;;;;;;;16.59;37.15;101793.68;107194;1282;59150;-77
2023/04/17 05:52:17;;;;;;;6.60;2.70;;;;;;;17.08;36.15;101791.61;107197;1282;59048;-78
2023/04/17 05:54:43;;;;;;;5.10;2.40;;;;;;;17.05;34.42;101786.27;106708;1282;59011;-79
2023/04/17 05:57:08;;;;;;;6.40;2.30;;;;;;;17.13;35.25;101786.14;107260;1282;59190;-78
2023/04/17 05:59:35;;;;;;;7.70;2.80;;;;;;;17.39;34.40;101787.24;107207;1282;59339;-77
2023/04/17 06:02:00;;;;;;;7.30;2.20;;;;;;;17.39;33.80;101784.52;107200;1282;59157;-77
2023/04/17 06:04:28;;;;;;;5.90;2.40;;;;;;;17.25;33.27;101793.27;106833;1283;59729;-76
2023/04/17 06:06:53;;;;;;;6.00;2.20;;;;;;;16.77;33.35;101784.36;107196;1282;59694;-77
2023/04/17 06:09:20;;;;;;;7.90;2.30;;;;;;;16.25;34.56;101788.95;107184;1282;59060;-77
2023/04/17 06:11:46;;;;;;;6.10;2.40;;;;;;;16.11;34.93;101789.62;106732;1283;59167;-77
2023/04/17 06:14:12;;;;;;;4.00;2.20;;;;;;;15.87;35.08;101799.38;107151;1282;59117;-76
2023/04/17 06:16:38;;;;;;;12.70;2.00;;;;;;;15.70;34.64;101791.95;106747;1283;58994;-77
2023/04/17 06:19:03;;;;;;;6.10;2.60;;;;;;;16.08;35.56;101785.09;107227;1281;59152;-77
2023/04/17 06:21:30;;;;;;;5.80;2.40;;;;;;;16.45;34.90;101788.50;107202;1282;59218;-77
2023/04/17 06:23:56;;;;;;;7.00;2.50;;;;;;;16.23;34.63;101784.92;107226;1282;59323;-77
2023/04/17 06:26:22;;;;;;;9.60;2.60;;;;;;;15.88;34.45;101790.52;107227;1282;59849;-77
2023/04/17 06:28:47;;;;;;;5.90;2.10;;;;;;;15.63;35.16;101794.64;107180;1282;60220;-76
2023/04/17 06:31:13;;;;;;;6.90;2.10;;;;;;;15.34;34.92;101791.03;106886;1283;59604;-77
2023/04/17 06:33:39;;;;;;;9.30;2.20;;;;;;;14.91;34.83;101809.23;107201;1282;59121;-76
2023/04/17 06:36:05;;;;;;;7.10;2.50;;;;;;;14.50;35.63;101801.27;107185;1282;59453;-77
2023/04/17 06:38:30;;;;;;;6.40;2.70;;;;;;;14.43;36.67;101797.70;107196;1282;59003;-76
2023/04/17 06:40:56;;;;;;;6.50;2.50;;;;;;;14.31;36.57;101802.23;107263;1282;59299;-77
2023/04/17 06:43:21;;;;;;;10.60;2.40;;;;;;;14.30;36.27;101795.88;106724;1282;72484;-76
2023/04/17 06:45:47;;;;;;;10.70;2.30;;;;;;;14.65;36.97;101799.45;107166;1282;59233;-77
2023/04/17 06:48:13;;;;;;;8.10;2.30;;;;;;;15.19;35.95;101801.03;107190;1282;58976;-76
2023/04/17 06:50:39;;;;;;;4.00;2.10;;;;;;;15.48;35.81;101797.14;107221;1281;59062;-77
2023/04/17 06:53:04;;;;;;;4.80;2.10;;;;;;;15.77;35.20;101793.15;107208;1282;58940;-76
2023/04/17 06:55:30;;;;;;;8.70;2.20;;;;;;;15.89;34.85;101794.33;107260;1282;59069;-76
2023/04/17 06:57:56;;;;;;;10.90;2.30;;;;;;;16.24;35.72;101785.63;107188;1282;59121;-77
2023/04/17 07:00:21;;;;;;;7.30;2.50;;;;;;;16.47;34.21;101786.81;107175;1282;59070;-76
2023/04/17 07:02:47;;;;;;;6.00;2.30;;;;;;;16.15;33.87;101784.52;107229;1281;58954;-76
2023/04/17 07:05:13;;;;;;;6.90;2.60;;;;;;;15.94;34.23;101783.48;107237;1283;59066;-76
2023/04/17 07:07:38;;;;;;;8.90;2.30;;;;;;;16.05;34.45;101775.79;106739;1282;59062;-76
2023/04/17 07:10:05;;;;;;;8.90;2.50;;;;;;;16.38;34.19;101772.06;107280;1282;59284;-76
2023/04/17 07:12:32;;;;;;;8.20;2.20;;;;;;;16.73;33.73;101768.83;107074;1283;74540;-76
2023/04/17 07:14:57;;;;;;;7.70;2.10;;;;;;;17.36;33.01;101765.61;107234;1282;59136;-77
2023/04/17 07:17:23;;;;;;;8.90;2.00;;;;;;;18.21;31.89;101765.80;107195;1281;59030;-78
2023/04/17 07:19:49;;;;;;;7.80;2.40;;;;;;;18.88;30.73;101762.44;107204;1282;58993;-77
2023/04/17 07:22:14;;;;;;;5.90;2.40;;;;;;;19.20;30.31;101761.32;106976;1282;59140;-77
2023/04/17 07:24:40;;;;;;;7.30;2.30;;;;;;;19.62;30.32;101762.05;106893;1283;59084;-76
2023/04/17 07:27:06;;;;;;;6.70;1.90;;;;;;;19.92;29.34;101763.95;107293;1282;59041;-78
2023/04/17 07:29:32;;;;;;;5.10;2.00;;;;;;;19.98;28.54;101763.05;107192;1282;59580;-78
2023/04/17 07:31:58;;;;;;;11.30;2.20;;;;;;;20.22;28.75;101753.83;107271;1282;59023;-78
2023/04/17 07:34:24;;;;;;;6.60;2.30;;;;;;;20.48;27.90;101752.02;106918;1283;59126;-79
2023/04/17 07:36:51;;;;;;;5.80;2.00;;;;;;;20.28;27.87;101749.79;107249;1282;59374;-77
2023/04/17 07:39:17;;;;;;;15.60;2.30;;;;;;;20.35;27.32;101751.61;107216;1282;59042;-79
2023/04/17 07:41:43;;;;;;;7.20;2.50;;;;;;;20.46;27.58;101744.34;107214;1282;58991;-79
2023/04/17 07:44:08;;;;;;;16.80;2.30;;;;;;;20.77;27.49;101739.17;107216;1282;59058;-77
2023/04/17 07:46:34;;;;;;;3.30;1.90;;;;;;;20.93;27.32;101735.83;106739;1281;59307;-78
2023/04/17 07:49:00;;;;;;;4.90;2.00;;;;;;;21.05;26.80;101740.92;107261;1282;59562;-77
2023/04/17 07:51:26;;;;;;;5.90;1.90;;;;;;;21.04;27.08;101734.67;106768;1282;59262;-78
2023/04/17 07:53:52;;;;;;;5.00;1.90;;;;;;;21.07;26.81;101734.42;107157;1282;59015;-78
2023/04/17 07:56:17;;;;;;;4.80;2.30;;;;;;;20.64;26.49;101728.11;107258;1282;59130;-79
2023/04/17 07:58:50;;;;;;;5.10;1.80;;;;;;;20.14;26.94;101732.05;107253;1282;59085;-79
2023/04/17 08:01:16;;;;;;;6.30;2.00;;;;;;;20.24;26.88;101732.34;107201;1282;73557;-78
2023/04/17 08:03:43;;;;;;;6.80;1.80;;;;;;;20.35;26.71;101724.34;107216;1282;58956;-77
2023/04/17 08:06:10;;;;;;;7.50;1.90;;;;;;;20.57;26.57;101709.50;106916;1282;59201;-78
2023/04/17 08:08:36;;;;;;;6.40;2.00;;;;;;;20.70;27.20;101711.09;107260;1282;58956;-77
2023/04/17 08:11:02;;;;;;;5.20;2.10;;;;;;;20.86;27.20;101714.73;107241;1282;59285;-77
2023/04/17 08:13:32;;;;;;;2.80;1.70;;;;;;;20.75;25.68;101709.17;106745;1282;59111;-78
2023/04/17 08:15:58;;;;;;;7.50;1.80;;;;;;;20.65;25.58;101710.67;106799;1285;59328;-78
2023/04/17 08:18:24;;;;;;;4.60;2.00;;;;;;;20.78;26.22;101708.97;107051;1283;59068;-78
2023/04/17 08:20:50;;;;;;;4.80;2.00;;;;;;;21.19;26.61;101697.07;107271;1282;59435;-76
2023/04/17 08:23:15;;;;;;;7.40;2.30;;;;;;;21.38;25.90;101697.60;107300;1281;59008;-77
2023/04/17 08:25:41;;;;;;;5.60;2.00;;;;;;;21.18;25.34;101688.03;107286;1282;59359;-77
2023/04/17 08:28:06;;;;;;;10.80;2.10;;;;;;;20.80;25.90;101682.15;107228;1282;59012;-77
2023/04/17 08:30:32;;;;;;;8.40;2.30;;;;;;;20.66;25.76;101691.38;107112;1282;59061;-76
2023/04/17 08:32:57;;;;;;;6.90;1.70;;;;;;;20.64;25.93;101678.77;107247;1281;59000;-77
2023/04/17 08:35:24;;;;;;;5.20;1.80;;;;;;;20.72;26.12;101687.28;107235;1281;59094;-78
2023/04/17 08:37:50;;;;;;;6.60;2.00;;;;;;;20.66;25.98;101683.54;107245;1282;58909;-77
2023/04/17 08:40:17;;;;;;;6.30;2.10;;;;;;;20.71;25.99;101686.14;107254;1282;59085;-77
2023/04/17 08:42:46;;;;;;;7.50;2.20;;;;;;;20.69;25.91;101664.04;107219;1282;59034;-78
2023/04/17 08:45:12;;;;;;;7.30;2.00;;;;;;;20.90;26.14;101678.72;107222;1282;74553;-77
2023/04/17 08:47:42;;;;;;;5.50;1.70;;;;;;;20.93;25.65;101670.98;106763;1282;73031;-77
2023/04/17 08:50:19;;;;;;;5.80;1.80;;;;;;;21.10;26.04;101663.39;106781;1284;60014;-77
2023/04/17 08:52:49;;;;;;;4.30;1.70;;;;;;;21.42;26.18;101658.80;107250;1281;61181;-78
2023/04/17 08:55:18;;;;;;;13.10;2.30;;;;;;;21.38;25.99;101659.36;107062;1282;74356;-77
2023/04/17 08:58:03;;;;;;;7.50;1.80;;;;;;;21.31;26.12;101658.01;107246;1282;74167;-79
2023/04/17 09:00:34;;;;;;;9.00;1.90;;;;;;;21.29;26.17;101650.08;107218;1282;73477;-78
2023/04/17 09:03:07;;;;;;;5.20;2.10;;;;;;;21.48;26.60;101649.33;107225;1282;61239;-77
2023/04/17 09:05:35;;;;;;;6.50;1.70;;;;;;;21.50;26.61;101641.16;107232;1281;60414;-77
2023/04/17 09:08:16;;;;;;;5.30;1.50;;;;;;;21.66;26.83;101646.55;106831;1282;75381;-77
2023/04/17 09:10:47;;;;;;;6.20;2.00;;;;;;;21.50;25.41;101639.14;106620;1283;72977;-77
2023/04/17 09:13:18;;;;;;;5.50;1.90;;;;;;;21.22;25.74;101631.87;107210;1282;73466;-77
2023/04/17 09:15:45;;;;;;;7.00;2.00;;;;;;;21.20;26.53;101617.93;106756;1282;60891;-77
2023/04/17 09:18:29;;;;;;;5.50;1.70;;;;;;;21.37;26.52;101622.86;107231;1282;59363;-77
2023/04/17 09:20:56;;;;;;;4.50;1.40;;;;;;;21.22;26.85;101615.77;107242;1282;75311;-77
2023/04/17 09:23:22;;;;;;;6.70;1.80;;;;;;;21.24;27.45;101622.29;107266;1282;73642;-77
2023/04/17 09:26:10;;;;;;;5.00;1.80;;;;;;;21.14;26.74;101618.06;106715;1283;59122;-77
2023/04/17 09:28:40;;;;;;;6.30;1.50;;;;;;;21.13;26.59;101616.66;107027;1282;59034;-77
2023/04/17 09:31:24;;;;;;;7.40;1.70;;;;;;;20.95;26.74;101606.55;107052;1282;60189;-77
2023/04/17 09:33:56;;;;;;;6.70;1.70;;;;;;;21.09;27.42;101602.21;107235;1282;75570;-77
2023/04/17 09:36:22;;;;;;;10.70;2.20;;;;;;;21.01;26.52;101601.34;107235;1282;74285;-77
2023/04/17 09:38:48;;;;;;;5.30;2.00;;;;;;;20.75;26.26;101606.90;107257;1282;59060;-77
2023/04/17 09:41:24;;;;;;;3.70;1.50;;;;;;;20.38;26.30;101595.99;107232;1281;59569;-77
2023/04/17 09:43:52;;;;;;;7.10;1.60;;;;;;;20.12;26.96;101602.45;107250;1281;58834;-77
2023/04/17 09:46:39;;;;;;;7.40;1.40;;;;;;;19.89;26.89;101593.15;107252;1282;74294;-77
2023/04/17 09:49:09;;;;;;;6.70;1.90;;;;;;;19.57;27.59;101600.45;107216;1282;74402;-77
2023/04/17 09:51:35;;;;;;;6.80;2.00;;;;;;;19.43;26.98;101591.52;107258;1282;73504;-77
2023/04/17 09:54:05;;;;;;;7.00;1.90;;;;;;;19.34;27.43;101599.17;107316;1282;58932;-77
2023/04/17 09:56:33;;;;;;;5.70;1.60;;;;;;;19.19;27.58;101600.41;107236;1282;60321;-76
2023/04/17 09:59:02;;;;;;;3.50;1.30;;;;;;;19.03;27.83;101584.17;106757;1282;74622;-76
2023/04/17 10:01:29;;;;;;;4.20;1.10;;;;;;;19.04;27.71;101593.06;107266;1282;73558;-76
2023/04/17 10:03:56;;;;;;;6.20;1.40;;;;;;;18.97;28.29;101589.21;107021;1282;72798;-77
2023/04/17 10:06:23;;;;;;;8.00;1.40;;;;;;;18.92;28.34;101595.19;107211;1282;61163;-76
2023/04/17 10:08:50;;;;;;;8.80;1.70;;;;;;;18.79;28.61;101589.16;107298;1282;59986;-76
2023/04/17 10:11:16;;;;;;;4.70;1.20;;;;;;;18.77;29.14;101577.70;107263;1282;74489;-77
2023/04/17 10:13:46;;;;;;;7.10;1.70;;;;;;;18.83;28.61;101578.40;106811;1282;59082;-76
2023/04/17 10:16:12;;;;;;;11.20;1.30;;;;;;;18.73;28.24;101573.92;107265;1281;73321;-76
2023/04/17 10:18:38;;;;;;;3.50;1.30;;;;;;;18.54;28.01;101588.09;106812;1282;59406;-77
2023/04/17 10:21:21;;;;;;;3.30;1.20;;;;;;;18.38;28.42;101586.11;107098;1281;59041;-76
2023/04/17 10:23:47;;;;;;;5.80;1.30;;;;;;;18.36;28.25;101583.57;107284;1283;74378;-77
2023/04/17 10:26:25;;;;;;;10.20;1.20;;;;;;;18.33;28.78;101579.67;107279;1282;73420;-78
2023/04/17 10:28:52;;;;;;;3.90;1.40;;;;;;;18.42;29.08;101563.92;107235;1282;73542;-76
2023/04/17 10:31:22;;;;;;;8.10;1.50;;;;;;;18.44;29.15;101572.85;106790;1282;61350;-76
2023/04/17 10:33:53;;;;;;;6.80;2.00;;;;;;;18.45;28.81;101576.23;107233;1282;61216;-76
2023/04/17 10:36:36;;;;;;;9.10;2.10;;;;;;;18.44;28.70;101563.71;106703;1285;74629;-77
2023/04/17 10:39:15;;;;;;;3.00;1.10;;;;;;;18.48;28.43;101569.75;107063;1283;74450;-76
2023/04/17 10:42:04;;;;;;;14.40;1.50;;;;;;;18.31;28.58;101568.61;107036;1284;73437;-75
2023/04/17 10:44:49;;;;;;;8.30;1.10;;;;;;;18.15;28.32;101559.86;106586;1286;61102;-76
2023/04/17 10:47:20;;;;;;;10.30;1.50;;;;;;;18.07;28.21;101554.86;107077;1284;60157;-76
2023/04/17 10:49:51;;;;;;;2.70;1.60;;;;;;;18.14;29.47;101552.94;107023;1284;74414;-76
2023/04/17 10:52:32;;;;;;;3.90;1.20;;;;;;;18.45;29.75;101545.50;107028;1284;74116;-75
2023/04/17 10:55:15;;;;;;;7.60;1.40;;;;;;;18.51;28.54;101534.06;107040;1284;72278;-76
2023/04/17 10:57:51;;;;;;;6.30;1.70;;;;;;;18.40;28.49;101535.00;106794;1285;59279;-76
2023/04/17 11:00:17;;;;;;;4.80;1.50;;;;;;;18.39;28.51;101535.06;107029;1285;61000;-76
2023/04/17 11:02:49;;;;;;;5.10;1.30;;;;;;;18.54;29.33;101539.17;106752;1283;59085;-76
2023/04/17 11:05:17;;;;;;;7.20;1.30;;;;;;;18.50;28.45;101537.02;107076;1286;74283;-76
2023/04/17 11:07:43;;;;;;;3.80;1.40;;;;;;;18.45;28.68;101546.42;106596;1284;72812;-76
2023/04/17 11:10:09;;;;;;;12.40;1.60;;;;;;;18.50;29.01;101540.35;107010;1285;59022;-76
2023/04/17 11:12:35;;;;;;;4.70;1.00;;;;;;;18.59;28.91;101541.61;107098;1284;58933;-76
2023/04/17 11:15:05;;;;;;;2.60;1.20;;;;;;;18.58;29.01;101544.04;106591;1285;59478;-76
2023/04/17 11:17:31;;;;;;;8.20;1.80;;;;;;;18.62;28.95;101522.48;107035;1285;74225;-76